sensor_id;sensor_type;location;lat;lon;timestamp;pressure;altitude;pressure_sealevel;temperature;humidity
35649;BME280;21768;48.562;13.414;2022-11-20T00:01:45;96750.34;;;4.55;73.86
35649;BME280;21768;48.562;13.414;2022-11-20T00:04:10;96751.84;;;4.53;74.22
35649;BME280;21768;48.562;13.414;2022-11-20T00:06:37;96753.44;;;4.63;74.23
35649;BME280;21768;48.562;13.414;2022-11-20T00:09:03;96756.41;;;4.69;74.18
35649;BME280;21768;48.562;13.414;2022-11-20T00:11:31;96756.09;;;4.76;74.16
35649;BME280;21768;48.562;13.414;2022-11-20T00:13:59;96753.94;;;4.81;73.99
35649;BME280;21768;48.562;13.414;2022-11-20T00:16:26;96754.94;;;4.83;73.89
35649;BME280;21768;48.562;13.414;2022-11-20T00:18:52;96754.19;;;4.84;73.98
35649;BME280;21768;48.562;13.414;2022-11-20T00:21:20;96760.94;;;4.85;73.92
35649;BME280;21768;48.562;13.414;2022-11-20T00:23:46;96754.03;;;4.92;74.06
35649;BME280;21768;48.562;13.414;2022-11-20T00:26:16;96755.09;;;4.96;74.04
35649;BME280;21768;48.562;13.414;2022-11-20T00:28:43;96756.97;;;4.98;74.01
35649;BME280;21768;48.562;13.414;2022-11-20T00:31:14;96753.25;;;4.93;74.06
35649;BME280;21768;48.562;13.414;2022-11-20T00:33:41;96755.97;;;4.96;73.97
35649;BME280;21768;48.562;13.414;2022-11-20T00:36:09;96758.69;;;4.99;74.03
35649;BME280;21768;48.562;13.414;2022-11-20T00:38:35;96757.81;;;4.99;73.73
35649;BME280;21768;48.562;13.414;2022-11-20T00:41:03;96756.63;;;4.94;73.72
35649;BME280;21768;48.562;13.414;2022-11-20T00:43:29;96763.25;;;4.93;73.74
35649;BME280;21768;48.562;13.414;2022-11-20T00:46:04;96747.59;;;4.96;73.68
35649;BME280;21768;48.562;13.414;2022-11-20T00:48:30;96752.28;;;4.91;73.62
35649;BME280;21768;48.562;13.414;2022-11-20T00:50:56;96749.22;;;4.95;73.87
35649;BME280;21768;48.562;13.414;2022-11-20T00:53:22;96751.44;;;5.02;74.09
35649;BME280;21768;48.562;13.414;2022-11-20T00:55:58;96753.19;;;5.03;74.10
35649;BME280;21768;48.562;13.414;2022-11-20T00:58:28;96757.53;;;5.06;74.12
35649;BME280;21768;48.562;13.414;2022-11-20T01:01:00;96763.41;;;5.06;74.04
35649;BME280;21768;48.562;13.414;2022-11-20T01:03:26;96753.66;;;5.09;73.94
35649;BME280;21768;48.562;13.414;2022-11-20T01:05:51;96754.63;;;5.11;73.83
35649;BME280;21768;48.562;13.414;2022-11-20T01:08:16;96760.38;;;5.10;73.70
35649;BME280;21768;48.562;13.414;2022-11-20T01:10:42;96763.28;;;5.05;73.61
35649;BME280;21768;48.562;13.414;2022-11-20T01:13:07;96759.69;;;5.01;73.72
35649;BME280;21768;48.562;13.414;2022-11-20T01:15:51;96764.44;;;4.98;73.64
35649;BME280;21768;48.562;13.414;2022-11-20T01:18:16;96762.59;;;4.96;73.85
35649;BME280;21768;48.562;13.414;2022-11-20T01:20:42;96759.53;;;4.88;74.24
35649;BME280;21768;48.562;13.414;2022-11-20T01:23:07;96760.75;;;4.93;73.85
35649;BME280;21768;48.562;13.414;2022-11-20T01:25:34;96768.38;;;4.95;73.82
35649;BME280;21768;48.562;13.414;2022-11-20T01:27:59;96779.44;;;4.98;74.07
35649;BME280;21768;48.562;13.414;2022-11-20T01:30:24;96764.69;;;5.01;73.95
35649;BME280;21768;48.562;13.414;2022-11-20T01:32:50;96766.66;;;5.05;73.77
35649;BME280;21768;48.562;13.414;2022-11-20T01:35:16;96763.19;;;5.03;74.08
35649;BME280;21768;48.562;13.414;2022-11-20T01:37:41;96769.91;;;5.04;74.02
35649;BME280;21768;48.562;13.414;2022-11-20T01:40:07;96770.16;;;5.07;74.13
35649;BME280;21768;48.562;13.414;2022-11-20T01:42:32;96776.91;;;5.08;74.11
35649;BME280;21768;48.562;13.414;2022-11-20T01:48:13;96770.63;;;5.13;74.07
35649;BME280;21768;48.562;13.414;2022-11-20T01:50:40;96771.50;;;5.14;74.29
35649;BME280;21768;48.562;13.414;2022-11-20T01:53:11;96765.63;;;5.13;74.15
35649;BME280;21768;48.562;13.414;2022-11-20T01:55:49;96765.84;;;5.17;74.18
35649;BME280;21768;48.562;13.414;2022-11-20T01:58:19;96765.28;;;5.21;73.95
35649;BME280;21768;48.562;13.414;2022-11-20T02:00:47;96763.59;;;5.20;74.14
35649;BME280;21768;48.562;13.414;2022-11-20T02:03:15;96765.84;;;5.17;74.35
35649;BME280;21768;48.562;13.414;2022-11-20T02:05:49;96765.09;;;5.18;74.42
35649;BME280;21768;48.562;13.414;2022-11-20T02:08:17;96771.94;;;5.20;74.28
35649;BME280;21768;48.562;13.414;2022-11-20T02:10:43;96778.69;;;5.21;74.03
35649;BME280;21768;48.562;13.414;2022-11-20T02:13:09;96773.59;;;5.20;73.86
35649;BME280;21768;48.562;13.414;2022-11-20T02:15:53;96772.38;;;5.15;73.86
35649;BME280;21768;48.562;13.414;2022-11-20T02:18:20;96777.66;;;5.07;74.03
35649;BME280;21768;48.562;13.414;2022-11-20T02:20:48;96785.91;;;5.06;74.08
35649;BME280;21768;48.562;13.414;2022-11-20T02:25:52;96781.78;;;5.07;74.13
35649;BME280;21768;48.562;13.414;2022-11-20T02:28:18;96780.28;;;5.09;74.04
35649;BME280;21768;48.562;13.414;2022-11-20T02:30:44;96780.38;;;5.10;74.08
35649;BME280;21768;48.562;13.414;2022-11-20T02:33:09;96774.22;;;5.17;74.08
35649;BME280;21768;48.562;13.414;2022-11-20T02:35:38;96782.59;;;5.18;73.89
35649;BME280;21768;48.562;13.414;2022-11-20T02:38:04;96774.75;;;5.13;74.08
35649;BME280;21768;48.562;13.414;2022-11-20T02:40:29;96772.13;;;5.11;74.04
35649;BME280;21768;48.562;13.414;2022-11-20T02:42:56;96768.25;;;5.15;74.16
35649;BME280;21768;48.562;13.414;2022-11-20T02:45:22;96764.13;;;5.16;74.21
35649;BME280;21768;48.562;13.414;2022-11-20T02:47:48;96777.38;;;5.15;74.26
35649;BME280;21768;48.562;13.414;2022-11-20T02:50:13;96780.97;;;5.18;74.30
35649;BME280;21768;48.562;13.414;2022-11-20T02:52:39;96769.44;;;5.20;74.29
35649;BME280;21768;48.562;13.414;2022-11-20T02:55:04;96774.53;;;5.22;74.12
35649;BME280;21768;48.562;13.414;2022-11-20T02:57:30;96774.03;;;5.26;74.30
35649;BME280;21768;48.562;13.414;2022-11-20T02:59:55;96769.13;;;5.27;74.02
35649;BME280;21768;48.562;13.414;2022-11-20T03:02:21;96769.03;;;5.26;74.15
35649;BME280;21768;48.562;13.414;2022-11-20T03:04:46;96771.53;;;5.26;74.25
35649;BME280;21768;48.562;13.414;2022-11-20T03:07:11;96764.03;;;5.26;73.83
35649;BME280;21768;48.562;13.414;2022-11-20T03:09:37;96767.91;;;5.22;74.29
35649;BME280;21768;48.562;13.414;2022-11-20T03:12:02;96773.66;;;5.21;74.30
35649;BME280;21768;48.562;13.414;2022-11-20T03:14:28;96768.59;;;5.20;74.28
35649;BME280;21768;48.562;13.414;2022-11-20T03:16:53;96764.66;;;5.23;74.43
35649;BME280;21768;48.562;13.414;2022-11-20T03:19:19;96756.28;;;5.23;74.38
35649;BME280;21768;48.562;13.414;2022-11-20T03:21:44;96763.72;;;5.33;74.50
35649;BME280;21768;48.562;13.414;2022-11-20T03:24:10;96762.22;;;5.35;74.10
35649;BME280;21768;48.562;13.414;2022-11-20T03:26:35;96765.47;;;5.34;74.28
35649;BME280;21768;48.562;13.414;2022-11-20T03:29:03;96770.69;;;5.37;74.35
35649;BME280;21768;48.562;13.414;2022-11-20T03:31:34;96770.69;;;5.37;74.24
35649;BME280;21768;48.562;13.414;2022-11-20T03:34:01;96767.91;;;5.44;74.28
35649;BME280;21768;48.562;13.414;2022-11-20T03:36:27;96773.66;;;5.43;74.31
35649;BME280;21768;48.562;13.414;2022-11-20T03:38:54;96770.41;;;5.44;74.24
35649;BME280;21768;48.562;13.414;2022-11-20T03:41:22;96771.34;;;5.46;74.27
35649;BME280;21768;48.562;13.414;2022-11-20T03:43:53;96783.22;;;5.48;74.42
35649;BME280;21768;48.562;13.414;2022-11-20T03:46:19;96775.72;;;5.48;74.35
35649;BME280;21768;48.562;13.414;2022-11-20T03:48:45;96783.00;;;5.45;74.43
35649;BME280;21768;48.562;13.414;2022-11-20T03:51:11;96782.91;;;5.44;74.47
35649;BME280;21768;48.562;13.414;2022-11-20T03:53:38;96783.00;;;5.45;74.58
35649;BME280;21768;48.562;13.414;2022-11-20T03:56:04;96784.84;;;5.48;74.10
35649;BME280;21768;48.562;13.414;2022-11-20T03:58:29;96776.34;;;5.46;74.27
35649;BME280;21768;48.562;13.414;2022-11-20T04:00:55;96781.38;;;5.46;74.16
35649;BME280;21768;48.562;13.414;2022-11-20T04:03:20;96783.44;;;5.40;74.23
35649;BME280;21768;48.562;13.414;2022-11-20T04:05:46;96785.19;;;5.41;74.57
35649;BME280;21768;48.562;13.414;2022-11-20T04:08:11;96781.91;;;5.42;74.46
35649;BME280;21768;48.562;13.414;2022-11-20T04:10:36;96781.06;;;5.41;74.32
35649;BME280;21768;48.562;13.414;2022-11-20T04:13:03;96780.94;;;5.40;74.15
35649;BME280;21768;48.562;13.414;2022-11-20T04:15:28;96782.44;;;5.38;74.44
35649;BME280;21768;48.562;13.414;2022-11-20T04:17:54;96775.19;;;5.41;74.47
35649;BME280;21768;48.562;13.414;2022-11-20T04:20:20;96785.19;;;5.41;74.52
35649;BME280;21768;48.562;13.414;2022-11-20T04:22:45;96785.59;;;5.35;74.44
35649;BME280;21768;48.562;13.414;2022-11-20T04:25:11;96776.13;;;5.31;74.45
35649;BME280;21768;48.562;13.414;2022-11-20T04:27:36;96775.25;;;5.31;74.31
35649;BME280;21768;48.562;13.414;2022-11-20T04:30:02;96770.88;;;5.28;74.47
35649;BME280;21768;48.562;13.414;2022-11-20T04:32:27;96766.97;;;5.32;74.51
35649;BME280;21768;48.562;13.414;2022-11-20T04:34:53;96776.00;;;5.30;74.80
35649;BME280;21768;48.562;13.414;2022-11-20T04:37:18;96771.09;;;5.31;74.80
35649;BME280;21768;48.562;13.414;2022-11-20T04:39:43;96769.72;;;5.35;74.80
35649;BME280;21768;48.562;13.414;2022-11-20T04:42:09;96766.81;;;5.40;74.76
35649;BME280;21768;48.562;13.414;2022-11-20T04:44:54;96771.34;;;5.46;74.71
35649;BME280;21768;48.562;13.414;2022-11-20T04:47:19;96770.41;;;5.44;74.91
35649;BME280;21768;48.562;13.414;2022-11-20T04:49:45;96764.63;;;5.45;74.68
35649;BME280;21768;48.562;13.414;2022-11-20T04:52:10;96768.44;;;5.40;74.60
35649;BME280;21768;48.562;13.414;2022-11-20T04:54:36;96761.78;;;5.40;74.56
35649;BME280;21768;48.562;13.414;2022-11-20T04:57:01;96762.66;;;5.41;74.71
35649;BME280;21768;48.562;13.414;2022-11-20T04:59:26;96759.53;;;5.43;74.81
35649;BME280;21768;48.562;13.414;2022-11-20T05:01:52;96757.78;;;5.42;74.59
35649;BME280;21768;48.562;13.414;2022-11-20T05:04:17;96758.09;;;5.47;74.92
35649;BME280;21768;48.562;13.414;2022-11-20T05:06:43;96763.44;;;5.52;74.71
35649;BME280;21768;48.562;13.414;2022-11-20T05:09:08;96761.81;;;5.52;74.75
35649;BME280;21768;48.562;13.414;2022-11-20T05:11:33;96776.81;;;5.52;74.63
35649;BME280;21768;48.562;13.414;2022-11-20T05:13:59;96772.34;;;5.48;74.43
35649;BME280;21768;48.562;13.414;2022-11-20T05:16:25;96772.03;;;5.43;74.53
35649;BME280;21768;48.562;13.414;2022-11-20T05:18:52;96772.69;;;5.41;74.70
35649;BME280;21768;48.562;13.414;2022-11-20T05:21:19;96769.41;;;5.42;74.84
35649;BME280;21768;48.562;13.414;2022-11-20T05:23:45;96771.34;;;5.46;74.67
35649;BME280;21768;48.562;13.414;2022-11-20T05:26:16;96775.72;;;5.48;74.63
35649;BME280;21768;48.562;13.414;2022-11-20T05:28:43;96786.72;;;5.51;74.66
35649;BME280;21768;48.562;13.414;2022-11-20T05:31:10;96775.59;;;5.47;74.79
35649;BME280;21768;48.562;13.414;2022-11-20T05:33:39;96773.09;;;5.47;74.90
35649;BME280;21768;48.562;13.414;2022-11-20T05:36:05;96772.69;;;5.53;74.97
35649;BME280;21768;48.562;13.414;2022-11-20T05:38:31;96782.69;;;5.53;74.81
35649;BME280;21768;48.562;13.414;2022-11-20T05:41:26;96783.56;;;5.53;75.00
35649;BME280;21768;48.562;13.414;2022-11-20T05:43:52;96777.91;;;5.56;74.77
35649;BME280;21768;48.562;13.414;2022-11-20T05:46:19;96788.03;;;5.57;74.81
35649;BME280;21768;48.562;13.414;2022-11-20T05:48:45;96787.94;;;5.56;75.03
35649;BME280;21768;48.562;13.414;2022-11-20T05:51:14;96796.66;;;5.61;74.96
35649;BME280;21768;48.562;13.414;2022-11-20T05:53:39;96788.38;;;5.62;75.00
35649;BME280;21768;48.562;13.414;2022-11-20T05:56:25;96791.75;;;5.62;75.05
35649;BME280;21768;48.562;13.414;2022-11-20T05:58:51;96790.13;;;5.63;74.88
35649;BME280;21768;48.562;13.414;2022-11-20T06:01:22;96789.03;;;5.59;74.99
35649;BME280;21768;48.562;13.414;2022-11-20T06:03:49;96788.28;;;5.60;75.18
35649;BME280;21768;48.562;13.414;2022-11-20T06:06:16;96787.75;;;5.64;75.02
35649;BME280;21768;48.562;13.414;2022-11-20T06:08:43;96792.09;;;5.67;75.15
35649;BME280;21768;48.562;13.414;2022-11-20T06:11:10;96789.72;;;5.68;75.11
35649;BME280;21768;48.562;13.414;2022-11-20T06:13:36;96793.09;;;5.69;75.15
35649;BME280;21768;48.562;13.414;2022-11-20T06:16:02;96789.16;;;5.72;75.18
35649;BME280;21768;48.562;13.414;2022-11-20T06:18:29;96788.41;;;5.73;75.21
35649;BME280;21768;48.562;13.414;2022-11-20T06:21:11;96787.41;;;5.71;75.21
35649;BME280;21768;48.562;13.414;2022-11-20T06:23:37;96796.13;;;5.76;75.20
35649;BME280;21768;48.562;13.414;2022-11-20T06:26:04;96795.16;;;5.74;74.91
35649;BME280;21768;48.562;13.414;2022-11-20T06:28:30;96804.81;;;5.70;75.20
35649;BME280;21768;48.562;13.414;2022-11-20T06:30:55;96802.97;;;5.67;75.02
35649;BME280;21768;48.562;13.414;2022-11-20T06:33:21;96792.97;;;5.67;74.98
35649;BME280;21768;48.562;13.414;2022-11-20T06:35:46;96803.94;;;5.69;75.02
35649;BME280;21768;48.562;13.414;2022-11-20T06:38:11;96813.31;;;5.72;75.23
35649;BME280;21768;48.562;13.414;2022-11-20T06:40:40;96814.28;;;5.74;74.97
35649;BME280;21768;48.562;13.414;2022-11-20T06:43:05;96812.78;;;5.76;75.11
35649;BME280;21768;48.562;13.414;2022-11-20T06:45:31;96817.13;;;5.78;75.03
35649;BME280;21768;48.562;13.414;2022-11-20T06:47:57;96817.91;;;5.77;74.92
35649;BME280;21768;48.562;13.414;2022-11-20T06:50:23;96829.31;;;5.74;75.12
35649;BME280;21768;48.562;13.414;2022-11-20T06:52:49;96830.19;;;5.74;75.07
35649;BME280;21768;48.562;13.414;2022-11-20T06:55:14;96830.19;;;5.74;74.93
35649;BME280;21768;48.562;13.414;2022-11-20T06:57:39;96831.91;;;5.75;74.67
35649;BME280;21768;48.562;13.414;2022-11-20T07:00:05;96830.41;;;5.77;74.95
35649;BME280;21768;48.562;13.414;2022-11-20T07:02:31;96831.41;;;5.79;75.08
35649;BME280;21768;48.562;13.414;2022-11-20T07:04:56;96829.88;;;5.81;75.13
35649;BME280;21768;48.562;13.414;2022-11-20T07:07:22;96830.22;;;5.86;75.17
35649;BME280;21768;48.562;13.414;2022-11-20T07:09:47;96838.22;;;5.92;74.95
35649;BME280;21768;48.562;13.414;2022-11-20T07:12:13;96840.16;;;5.96;74.94
35649;BME280;21768;48.562;13.414;2022-11-20T07:14:38;96837.00;;;5.99;74.81
35649;BME280;21768;48.562;13.414;2022-11-20T07:17:03;96844.00;;;6.03;74.94
35649;BME280;21768;48.562;13.414;2022-11-20T07:19:28;96836.47;;;6.03;74.94
35649;BME280;21768;48.562;13.414;2022-11-20T07:21:54;96838.34;;;6.05;74.80
35649;BME280;21768;48.562;13.414;2022-11-20T07:24:19;96838.44;;;6.07;74.72
35649;BME280;21768;48.562;13.414;2022-11-20T07:26:47;96842.69;;;6.08;74.93
35649;BME280;21768;48.562;13.414;2022-11-20T07:29:14;96837.69;;;6.08;74.79
35649;BME280;21768;48.562;13.414;2022-11-20T07:31:40;96847.25;;;6.02;74.90
35649;BME280;21768;48.562;13.414;2022-11-20T07:34:05;96846.59;;;6.04;75.12
35649;BME280;21768;48.562;13.414;2022-11-20T07:36:31;96827.34;;;6.03;75.02
35649;BME280;21768;48.562;13.414;2022-11-20T07:38:56;96848.34;;;5.94;74.82
35649;BME280;21768;48.562;13.414;2022-11-20T07:41:21;96835.81;;;5.94;74.90
35649;BME280;21768;48.562;13.414;2022-11-20T07:43:47;96846.38;;;5.90;74.87
35649;BME280;21768;48.562;13.414;2022-11-20T07:46:12;96827.44;;;5.93;74.96
35649;BME280;21768;48.562;13.414;2022-11-20T07:48:37;96839.84;;;5.92;74.82
35649;BME280;21768;48.562;13.414;2022-11-20T07:51:03;96828.22;;;5.92;74.69
35649;BME280;21768;48.562;13.414;2022-11-20T07:53:28;96829.59;;;5.89;74.65
35649;BME280;21768;48.562;13.414;2022-11-20T07:55:54;96832.59;;;5.85;74.74
35649;BME280;21768;48.562;13.414;2022-11-20T07:58:20;96824.75;;;5.80;75.07
35649;BME280;21768;48.562;13.414;2022-11-20T08:00:46;96831.75;;;5.84;75.38
35649;BME280;21768;48.562;13.414;2022-11-20T08:03:11;96821.66;;;5.94;75.32
35649;BME280;21768;48.562;13.414;2022-11-20T08:05:37;96837.47;;;6.05;75.28
35649;BME280;21768;48.562;13.414;2022-11-20T08:08:02;96832.47;;;6.17;75.12
35649;BME280;21768;48.562;13.414;2022-11-20T08:10:28;96835.75;;;6.27;74.86
35649;BME280;21768;48.562;13.414;2022-11-20T08:12:53;96837.72;;;6.31;74.75
35649;BME280;21768;48.562;13.414;2022-11-20T08:15:38;96837.94;;;6.34;74.52
35649;BME280;21768;48.562;13.414;2022-11-20T08:18:11;96831.72;;;6.41;74.48
35649;BME280;21768;48.562;13.414;2022-11-20T08:20:36;96834.75;;;6.48;74.43
35649;BME280;21768;48.562;13.414;2022-11-20T08:23:05;96838.25;;;6.51;74.27
35649;BME280;21768;48.562;13.414;2022-11-20T08:25:31;96839.66;;;6.59;74.14
35649;BME280;21768;48.562;13.414;2022-11-20T08:28:01;96831.16;;;6.57;73.93
35649;BME280;21768;48.562;13.414;2022-11-20T08:30:27;96834.44;;;6.56;73.88
35649;BME280;21768;48.562;13.414;2022-11-20T08:32:53;96834.44;;;6.56;73.78
35649;BME280;21768;48.562;13.414;2022-11-20T08:35:20;96830.50;;;6.59;73.77
35649;BME280;21768;48.562;13.414;2022-11-20T08:37:46;96838.47;;;6.65;73.83
35649;BME280;21768;48.562;13.414;2022-11-20T08:40:15;96838.78;;;6.70;73.69
35649;BME280;21768;48.562;13.414;2022-11-20T08:42:48;96841.72;;;6.76;73.55
35649;BME280;21768;48.562;13.414;2022-11-20T08:45:15;96838.13;;;6.84;73.40
35649;BME280;21768;48.562;13.414;2022-11-20T08:47:41;96835.94;;;6.89;73.39
35649;BME280;21768;48.562;13.414;2022-11-20T08:50:08;96833.72;;;6.93;73.23
35649;BME280;21768;48.562;13.414;2022-11-20T08:52:34;96835.69;;;6.97;73.12
35649;BME280;21768;48.562;13.414;2022-11-20T08:54:59;96832.50;;;7.00;73.14
35649;BME280;21768;48.562;13.414;2022-11-20T08:57:24;96832.06;;;7.05;73.00
35649;BME280;21768;48.562;13.414;2022-11-20T08:59:50;96825.31;;;7.04;72.89
35649;BME280;21768;48.562;13.414;2022-11-20T09:02:15;96822.59;;;7.01;72.94
35649;BME280;21768;48.562;13.414;2022-11-20T09:04:40;96829.69;;;6.95;72.88
35649;BME280;21768;48.562;13.414;2022-11-20T09:07:06;96830.78;;;6.99;72.58
35649;BME280;21768;48.562;13.414;2022-11-20T09:09:31;96822.59;;;7.01;72.73
35649;BME280;21768;48.562;13.414;2022-11-20T09:11:57;96821.28;;;7.06;72.83
35649;BME280;21768;48.562;13.414;2022-11-20T09:14:23;96819.53;;;7.05;72.80
35649;BME280;21768;48.562;13.414;2022-11-20T09:16:54;96823.03;;;7.07;72.95
35649;BME280;21768;48.562;13.414;2022-11-20T09:19:19;96820.41;;;7.06;72.85
35649;BME280;21768;48.562;13.414;2022-11-20T09:21:44;96816.16;;;7.05;73.04
35649;BME280;21768;48.562;13.414;2022-11-20T09:24:10;96807.09;;;7.07;73.22
35649;BME280;21768;48.562;13.414;2022-11-20T09:26:35;96804.91;;;7.11;73.52
35649;BME280;21768;48.562;13.414;2022-11-20T09:29:00;96808.22;;;7.24;73.35
35649;BME280;21768;48.562;13.414;2022-11-20T09:31:26;96815.06;;;7.38;73.47
35649;BME280;21768;48.562;13.414;2022-11-20T09:33:51;96814.53;;;7.55;73.27
35649;BME280;21768;48.562;13.414;2022-11-20T09:36:17;96815.16;;;7.64;73.21
35649;BME280;21768;48.562;13.414;2022-11-20T09:38:47;96818.72;;;7.68;73.22
35649;BME280;21768;48.562;13.414;2022-11-20T09:41:34;96814.13;;;7.74;73.39
35649;BME280;21768;48.562;13.414;2022-11-20T09:46:50;96813.84;;;7.82;72.93
35649;BME280;21768;48.562;13.414;2022-11-20T09:54:57;96805.09;;;8.02;73.46
35649;BME280;21768;48.562;13.414;2022-11-20T09:57:34;96800.44;;;8.33;73.10
35649;BME280;21768;48.562;13.414;2022-11-20T10:00:03;96802.53;;;8.67;72.30
35649;BME280;21768;48.562;13.414;2022-11-20T10:02:39;96804.06;;;8.78;71.75
35649;BME280;21768;48.562;13.414;2022-11-20T10:05:24;96800.19;;;8.70;71.25
35649;BME280;21768;48.562;13.414;2022-11-20T10:08:21;96796.06;;;8.57;71.83
35649;BME280;21768;48.562;13.414;2022-11-20T10:11:04;96795.78;;;8.52;71.56
35649;BME280;21768;48.562;13.414;2022-11-20T10:19:54;96787.00;;;8.33;71.90
35649;BME280;21768;48.562;13.414;2022-11-20T10:25:24;96791.00;;;8.17;71.88
35649;BME280;21768;48.562;13.414;2022-11-20T10:30:37;96785.47;;;7.97;72.63
35649;BME280;21768;48.562;13.414;2022-11-20T10:33:12;96785.78;;;8.01;72.61
35649;BME280;21768;48.562;13.414;2022-11-20T10:35:42;96789.56;;;8.08;72.56
35649;BME280;21768;48.562;13.414;2022-11-20T10:40:52;96778.16;;;8.13;72.44
35649;BME280;21768;48.562;13.414;2022-11-20T10:43:28;96780.00;;;8.15;72.56
35649;BME280;21768;48.562;13.414;2022-11-20T10:45:58;96774.88;;;8.14;72.81
35649;BME280;21768;48.562;13.414;2022-11-20T10:48:27;96778.38;;;8.16;73.04
35649;BME280;21768;48.562;13.414;2022-11-20T11:02:15;96761.63;;;8.30;72.91
35649;BME280;21768;48.562;13.414;2022-11-20T11:04:44;96753.47;;;8.32;72.60
35649;BME280;21768;48.562;13.414;2022-11-20T11:07:15;96756.94;;;8.34;72.85
35649;BME280;21768;48.562;13.414;2022-11-20T11:09:50;96752.78;;;8.35;72.58
35649;BME280;21768;48.562;13.414;2022-11-20T11:12:17;96755.28;;;8.35;72.43
35649;BME280;21768;48.562;13.414;2022-11-20T11:14:52;96756.38;;;8.38;72.51
35649;BME280;21768;48.562;13.414;2022-11-20T11:22:33;96754.59;;;8.50;72.07
35649;BME280;21768;48.562;13.414;2022-11-20T11:24:59;96747.25;;;8.53;71.36
35649;BME280;21768;48.562;13.414;2022-11-20T11:27:25;96757.09;;;8.50;71.40
35649;BME280;21768;48.562;13.414;2022-11-20T11:30:02;96747.25;;;8.53;71.15
35649;BME280;21768;48.562;13.414;2022-11-20T11:32:27;96743.56;;;8.62;71.20
35649;BME280;21768;48.562;13.414;2022-11-20T11:35:03;96739.50;;;8.64;70.90
35649;BME280;21768;48.562;13.414;2022-11-20T11:37:33;96739.59;;;8.65;70.19
35649;BME280;21768;48.562;13.414;2022-11-20T11:40:00;96732.84;;;8.64;70.21
35649;BME280;21768;48.562;13.414;2022-11-20T11:42:27;96728.38;;;8.60;70.24
35649;BME280;21768;48.562;13.414;2022-11-20T11:44:56;96729.75;;;8.55;69.78
35649;BME280;21768;48.562;13.414;2022-11-20T11:47:36;96725.59;;;8.56;70.14
35649;BME280;21768;48.562;13.414;2022-11-20T11:53:11;96722.69;;;8.63;70.20
35649;BME280;21768;48.562;13.414;2022-11-20T11:55:42;96719.53;;;8.67;68.74
35649;BME280;21768;48.562;13.414;2022-11-20T11:58:16;96721.28;;;8.68;68.77
35649;BME280;21768;48.562;13.414;2022-11-20T12:00:54;96713.34;;;8.75;68.88
35649;BME280;21768;48.562;13.414;2022-11-20T12:04:05;96721.38;;;8.82;69.00
35649;BME280;21768;48.562;13.414;2022-11-20T12:06:36;96714.69;;;8.83;68.65
35649;BME280;21768;48.562;13.414;2022-11-20T12:09:06;96714.78;;;8.84;68.75
35649;BME280;21768;48.562;13.414;2022-11-20T12:11:38;96713.72;;;8.81;68.20
35649;BME280;21768;48.562;13.414;2022-11-20T12:14:31;96717.00;;;8.80;68.25
35649;BME280;21768;48.562;13.414;2022-11-20T12:17:00;96717.19;;;8.83;67.76
35649;BME280;21768;48.562;13.414;2022-11-20T12:19:31;96717.19;;;8.83;67.76
35649;BME280;21768;48.562;13.414;2022-11-20T12:27:47;96703.50;;;8.93;67.64
35649;BME280;21768;48.562;13.414;2022-11-20T12:30:16;96712.88;;;8.95;67.33
35649;BME280;21768;48.562;13.414;2022-11-20T12:35:42;96699.19;;;8.90;66.98
35649;BME280;21768;48.562;13.414;2022-11-20T12:43:29;96699.97;;;8.89;66.67
35649;BME280;21768;48.562;13.414;2022-11-20T12:52:01;96691.00;;;9.07;66.54
35649;BME280;21768;48.562;13.414;2022-11-20T12:57:44;96688.06;;;9.29;66.26
35649;BME280;21768;48.562;13.414;2022-11-20T13:00:19;96682.63;;;9.36;65.41
35649;BME280;21768;48.562;13.414;2022-11-20T13:08:37;96680.53;;;9.44;65.96
35649;BME280;21768;48.562;13.414;2022-11-20T13:16:32;96681.03;;;9.24;66.31
35649;BME280;21768;48.562;13.414;2022-11-20T13:19:05;96678.06;;;9.16;66.74
35649;BME280;21768;48.562;13.414;2022-11-20T13:21:43;96685.53;;;9.14;67.03
35649;BME280;21768;48.562;13.414;2022-11-20T13:27:00;96673.19;;;9.04;67.02
35649;BME280;21768;48.562;13.414;2022-11-20T13:29:26;96675.06;;;8.94;67.23
35649;BME280;21768;48.562;13.414;2022-11-20T13:32:02;96675.84;;;8.93;67.78
35649;BME280;21768;48.562;13.414;2022-11-20T13:34:29;96667.53;;;8.94;68.03
35649;BME280;21768;48.562;13.414;2022-11-20T13:36:56;96668.56;;;8.97;68.23
35649;BME280;21768;48.562;13.414;2022-11-20T13:39:34;96666.75;;;8.95;68.10
35649;BME280;21768;48.562;13.414;2022-11-20T13:42:21;96672.47;;;8.92;68.00
35649;BME280;21768;48.562;13.414;2022-11-20T13:44:54;96669.88;;;8.91;68.28
35649;BME280;21768;48.562;13.414;2022-11-20T13:47:25;96665.63;;;8.90;68.48
35649;BME280;21768;48.562;13.414;2022-11-20T13:49:52;96665.34;;;8.85;69.08
35649;BME280;21768;48.562;13.414;2022-11-20T13:55:40;96666.72;;;8.80;68.61
35649;BME280;21768;48.562;13.414;2022-11-20T13:58:27;96668.09;;;8.75;68.97
35649;BME280;21768;48.562;13.414;2022-11-20T14:03:23;96676.78;;;8.80;70.00
35649;BME280;21768;48.562;13.414;2022-11-20T14:05:59;96666.03;;;8.82;69.99
35649;BME280;21768;48.562;13.414;2022-11-20T14:08:36;96663.06;;;8.75;69.78
35649;BME280;21768;48.562;13.414;2022-11-20T14:11:14;96671.78;;;8.67;70.10
35649;BME280;21768;48.562;13.414;2022-11-20T14:13:52;96677.63;;;8.66;70.16
35649;BME280;21768;48.562;13.414;2022-11-20T14:16:21;96676.09;;;8.55;70.10
35649;BME280;21768;48.562;13.414;2022-11-20T14:18:46;96673.53;;;8.40;70.57
35649;BME280;21768;48.562;13.414;2022-11-20T14:21:21;96676.53;;;8.34;70.96
35649;BME280;21768;48.562;13.414;2022-11-20T14:23:47;96676.44;;;8.33;70.96
35649;BME280;21768;48.562;13.414;2022-11-20T14:26:16;96677.06;;;8.30;71.00
35649;BME280;21768;48.562;13.414;2022-11-20T14:28:48;96681.91;;;8.27;71.12
35649;BME280;21768;48.562;13.414;2022-11-20T14:31:28;96672.44;;;8.23;71.30
35649;BME280;21768;48.562;13.414;2022-11-20T14:33:54;96670.69;;;8.22;71.40
35649;BME280;21768;48.562;13.414;2022-11-20T14:36:22;96678.22;;;8.22;71.39
35649;BME280;21768;48.562;13.414;2022-11-20T14:38:49;96669.72;;;8.20;71.51